sensor_id;sensor_type;location;lat;lon;timestamp;pressure;altitude;pressure_sealevel;temperature;humidity
46944;BME280;32678;43.852;25.952;2022-12-17T00:03:19;101025.25;;;5.67;100.00
46944;BME280;32678;43.852;25.952;2022-12-17T00:08:35;101018.81;;;6.09;99.33
46944;BME280;32678;43.852;25.952;2022-12-17T00:13:51;101023.25;;;6.00;100.00
46944;BME280;32678;43.852;25.952;2022-12-17T00:19:06;101020.75;;;5.89;100.00
46944;BME280;32678;43.852;25.952;2022-12-17T00:24:22;101016.09;;;6.20;100.00
46944;BME280;32678;43.852;25.952;2022-12-17T00:29:37;101005.47;;;6.40;99.72
46944;BME280;32678;43.852;25.952;2022-12-17T00:34:54;101008.69;;;6.59;99.19
46944;BME280;32678;43.852;25.952;2022-12-17T00:40:11;101011.97;;;6.74;98.49
46944;BME280;32678;43.852;25.952;2022-12-17T00:45:26;101001.50;;;6.79;95.21
46944;BME280;32678;43.852;25.952;2022-12-17T00:50:40;100988.47;;;6.77;96.09
46944;BME280;32678;43.852;25.952;2022-12-17T00:55:56;100989.28;;;6.81;94.95
46944;BME280;32678;43.852;25.952;2022-12-17T01:01:11;100999.69;;;6.81;95.26
46944;BME280;32678;43.852;25.952;2022-12-17T01:06:27;101002.25;;;6.85;95.04
46944;BME280;32678;43.852;25.952;2022-12-17T01:11:42;100992.63;;;6.90;94.58
46944;BME280;32678;43.852;25.952;2022-12-17T01:16:59;100975.19;;;6.94;94.21
46944;BME280;32678;43.852;25.952;2022-12-17T01:22:14;100964.88;;;6.85;93.74
46944;BME280;32678;43.852;25.952;2022-12-17T01:27:29;100962.34;;;6.83;93.51
46944;BME280;32678;43.852;25.952;2022-12-17T01:32:45;100950.97;;;6.87;93.75
46944;BME280;32678;43.852;25.952;2022-12-17T01:38:00;100959.59;;;6.89;93.42
46944;BME280;32678;43.852;25.952;2022-12-17T01:43:29;100965.00;;;6.79;92.31
46944;BME280;32678;43.852;25.952;2022-12-17T01:48:45;100964.28;;;6.66;91.83
46944;BME280;32678;43.852;25.952;2022-12-17T01:54:01;100957.16;;;6.13;94.47
46944;BME280;32678;43.852;25.952;2022-12-17T01:59:17;100944.19;;;6.10;94.50
46944;BME280;32678;43.852;25.952;2022-12-17T02:04:38;100928.69;;;6.01;95.32
46944;BME280;32678;43.852;25.952;2022-12-17T02:09:56;100961.66;;;5.99;95.22
46944;BME280;32678;43.852;25.952;2022-12-17T02:15:15;100951.31;;;5.96;94.50
46944;BME280;32678;43.852;25.952;2022-12-17T02:20:33;100946.28;;;5.75;95.46
46944;BME280;32678;43.852;25.952;2022-12-17T02:25:52;100942.81;;;5.74;96.04
46944;BME280;32678;43.852;25.952;2022-12-17T02:31:10;100935.00;;;5.73;95.69
46944;BME280;32678;43.852;25.952;2022-12-17T02:36:32;100935.88;;;5.76;96.38
46944;BME280;32678;43.852;25.952;2022-12-17T02:41:50;100927.66;;;6.11;95.75
46944;BME280;32678;43.852;25.952;2022-12-17T02:47:20;100939.03;;;6.05;94.63
46944;BME280;32678;43.852;25.952;2022-12-17T02:52:38;100938.06;;;6.14;94.34
46944;BME280;32678;43.852;25.952;2022-12-17T02:57:55;100944.19;;;6.08;94.18
46944;BME280;32678;43.852;25.952;2022-12-17T03:03:11;100939.00;;;6.08;93.51
46944;BME280;32678;43.852;25.952;2022-12-17T03:08:26;100938.38;;;5.87;95.44
46944;BME280;32678;43.852;25.952;2022-12-17T03:13:41;100925.22;;;5.99;94.06
46944;BME280;32678;43.852;25.952;2022-12-17T03:18:57;100891.47;;;5.91;94.30
46944;BME280;32678;43.852;25.952;2022-12-17T03:24:16;100887.47;;;5.58;96.33
46944;BME280;32678;43.852;25.952;2022-12-17T03:29:33;100882.84;;;5.88;96.21
46944;BME280;32678;43.852;25.952;2022-12-17T03:34:49;100869.78;;;5.94;95.18
46944;BME280;32678;43.852;25.952;2022-12-17T03:40:07;100863.44;;;6.15;94.82
46944;BME280;32678;43.852;25.952;2022-12-17T03:45:22;100866.84;;;6.18;93.96
46944;BME280;32678;43.852;25.952;2022-12-17T03:50:40;100858.78;;;6.38;93.74
46944;BME280;32678;43.852;25.952;2022-12-17T03:55:58;100860.53;;;6.36;92.45
46944;BME280;32678;43.852;25.952;2022-12-17T04:01:13;100860.44;;;6.40;92.31
46944;BME280;32678;43.852;25.952;2022-12-17T04:06:28;100835.13;;;6.51;91.99
46944;BME280;32678;43.852;25.952;2022-12-17T04:11:44;100840.22;;;6.59;91.66
46944;BME280;32678;43.852;25.952;2022-12-17T04:16:59;100854.13;;;6.58;90.92
46944;BME280;32678;43.852;25.952;2022-12-17T04:22:14;100847.06;;;6.66;90.43
46944;BME280;32678;43.852;25.952;2022-12-17T04:27:30;100838.41;;;6.64;90.46
46944;BME280;32678;43.852;25.952;2022-12-17T04:32:51;100838.44;;;6.61;89.09
46944;BME280;32678;43.852;25.952;2022-12-17T04:38:07;100821.94;;;6.02;88.94
46944;BME280;32678;43.852;25.952;2022-12-17T04:43:22;100820.53;;;5.76;91.10
46944;BME280;32678;43.852;25.952;2022-12-17T04:48:37;100834.66;;;5.55;92.80
46944;BME280;32678;43.852;25.952;2022-12-17T04:53:53;100851.94;;;5.57;94.06
46944;BME280;32678;43.852;25.952;2022-12-17T04:59:08;100870.44;;;5.30;93.15
46944;BME280;32678;43.852;25.952;2022-12-17T05:04:28;100878.91;;;5.49;94.52
46944;BME280;32678;43.852;25.952;2022-12-17T05:09:44;100893.38;;;5.76;93.71
46944;BME280;32678;43.852;25.952;2022-12-17T05:14:59;100911.41;;;5.92;90.52
46944;BME280;32678;43.852;25.952;2022-12-17T05:20:20;100913.84;;;5.20;90.23
46944;BME280;32678;43.852;25.952;2022-12-17T05:25:36;100907.94;;;4.99;92.58
46944;BME280;32678;43.852;25.952;2022-12-17T05:30:53;100905.34;;;4.99;93.08
46944;BME280;32678;43.852;25.952;2022-12-17T05:36:12;100904.66;;;4.78;93.85
46944;BME280;32678;43.852;25.952;2022-12-17T05:41:27;100922.03;;;4.67;93.49
46944;BME280;32678;43.852;25.952;2022-12-17T05:46:42;100935.84;;;4.77;93.95
46944;BME280;32678;43.852;25.952;2022-12-17T05:51:57;100938.44;;;4.77;93.70
46944;BME280;32678;43.852;25.952;2022-12-17T05:57:13;100939.31;;;4.77;94.67
46944;BME280;32678;43.852;25.952;2022-12-17T06:02:28;100922.91;;;4.66;94.64
46944;BME280;32678;43.852;25.952;2022-12-17T06:07:45;100931.59;;;4.64;94.88
46944;BME280;32678;43.852;25.952;2022-12-17T06:13:01;100895.34;;;4.47;95.72
46944;BME280;32678;43.852;25.952;2022-12-17T06:18:16;100875.59;;;4.19;96.09
46944;BME280;32678;43.852;25.952;2022-12-17T06:23:31;100880.66;;;4.42;96.34
46944;BME280;32678;43.852;25.952;2022-12-17T06:28:49;100866.00;;;4.31;96.61
46944;BME280;32678;43.852;25.952;2022-12-17T06:34:04;100852.94;;;4.45;97.80
46944;BME280;32678;43.852;25.952;2022-12-17T06:39:19;100854.69;;;4.42;97.91
46944;BME280;32678;43.852;25.952;2022-12-17T06:44:35;100839.94;;;4.48;99.46
46944;BME280;32678;43.852;25.952;2022-12-17T06:49:50;100872.56;;;4.84;99.08
46944;BME280;32678;43.852;25.952;2022-12-17T06:55:06;100866.19;;;5.18;98.10
46944;BME280;32678;43.852;25.952;2022-12-17T07:00:22;100860.69;;;5.50;97.29
46944;BME280;32678;43.852;25.952;2022-12-17T07:05:37;100852.28;;;5.27;95.06
46944;BME280;32678;43.852;25.952;2022-12-17T07:10:52;100863.78;;;5.02;95.91
46944;BME280;32678;43.852;25.952;2022-12-17T07:16:08;100857.59;;;5.16;95.42
46944;BME280;32678;43.852;25.952;2022-12-17T07:21:23;100850.88;;;4.90;96.80
46944;BME280;32678;43.852;25.952;2022-12-17T07:26:38;100842.94;;;5.08;97.90
46944;BME280;32678;43.852;25.952;2022-12-17T07:31:54;100859.84;;;5.48;97.32
46944;BME280;32678;43.852;25.952;2022-12-17T07:37:16;100858.09;;;5.50;95.65
46944;BME280;32678;43.852;25.952;2022-12-17T07:42:34;100892.50;;;5.75;95.17
46944;BME280;32678;43.852;25.952;2022-12-17T07:47:53;100867.25;;;5.82;94.73
46944;BME280;32678;43.852;25.952;2022-12-17T07:53:08;100914.25;;;5.71;94.10
46944;BME280;32678;43.852;25.952;2022-12-17T07:58:23;100985.34;;;5.68;94.07
46944;BME280;32678;43.852;25.952;2022-12-17T08:03:44;101089.56;;;5.52;94.05
46944;BME280;32678;43.852;25.952;2022-12-17T08:09:01;101131.19;;;5.46;93.99
46944;BME280;32678;43.852;25.952;2022-12-17T08:14:17;101160.66;;;5.46;93.42
46944;BME280;32678;43.852;25.952;2022-12-17T08:19:33;101185.09;;;5.09;94.02
46944;BME280;32678;43.852;25.952;2022-12-17T08:24:48;101189.44;;;5.04;95.89
46944;BME280;32678;43.852;25.952;2022-12-17T08:30:03;101182.47;;;5.13;97.24
46944;BME280;32678;43.852;25.952;2022-12-17T08:35:20;101182.53;;;5.03;98.88
46944;BME280;32678;43.852;25.952;2022-12-17T08:40:35;101193.72;;;5.20;98.73
46944;BME280;32678;43.852;25.952;2022-12-17T08:45:50;101191.91;;;5.37;98.79
46944;BME280;32678;43.852;25.952;2022-12-17T08:51:07;101175.25;;;5.72;96.95
46944;BME280;32678;43.852;25.952;2022-12-17T08:56:22;101178.75;;;5.64;97.56
46944;BME280;32678;43.852;25.952;2022-12-17T09:01:52;101176.06;;;5.77;97.10
46944;BME280;32678;43.852;25.952;2022-12-17T09:07:16;101181.22;;;5.90;97.88
46944;BME280;32678;43.852;25.952;2022-12-17T09:12:32;101189.91;;;5.85;98.09
46944;BME280;32678;43.852;25.952;2022-12-17T09:17:46;101213.22;;;6.03;98.30
46944;BME280;32678;43.852;25.952;2022-12-17T09:23:03;101217.22;;;6.46;96.33
46944;BME280;32678;43.852;25.952;2022-12-17T09:28:20;101244.00;;;6.64;95.89
46944;BME280;32678;43.852;25.952;2022-12-17T09:33:37;101181.50;;;6.56;97.45
46944;BME280;32678;43.852;25.952;2022-12-17T09:38:54;101178.94;;;6.55;98.62
46944;BME280;32678;43.852;25.952;2022-12-17T09:44:13;101122.16;;;6.84;98.55
46944;BME280;32678;43.852;25.952;2022-12-17T09:49:39;101124.72;;;6.88;98.17
46944;BME280;32678;43.852;25.952;2022-12-17T09:54:55;101149.50;;;7.21;98.05
46944;BME280;32678;43.852;25.952;2022-12-17T10:00:19;101143.56;;;7.10;100.00
46944;BME280;32678;43.852;25.952;2022-12-17T10:05:34;101077.72;;;7.56;100.00
46944;BME280;32678;43.852;25.952;2022-12-17T10:10:50;101050.19;;;7.90;100.00
46944;BME280;32678;43.852;25.952;2022-12-17T10:16:19;101015.97;;;8.05;100.00
46944;BME280;32678;43.852;25.952;2022-12-17T10:21:36;101033.22;;;8.12;99.09
46944;BME280;32678;43.852;25.952;2022-12-17T10:26:52;101031.28;;;8.22;98.28
46944;BME280;32678;43.852;25.952;2022-12-17T10:32:08;101082.50;;;8.32;98.15
46944;BME280;32678;43.852;25.952;2022-12-17T10:37:23;101078.03;;;8.40;99.00
46944;BME280;32678;43.852;25.952;2022-12-17T10:42:39;101059.94;;;8.74;99.49
46944;BME280;32678;43.852;25.952;2022-12-17T10:48:00;101082.66;;;9.12;99.54
46944;BME280;32678;43.852;25.952;2022-12-17T10:53:15;101093.31;;;9.41;99.23
46944;BME280;32678;43.852;25.952;2022-12-17T10:58:33;101106.38;;;9.43;97.43
46944;BME280;32678;43.852;25.952;2022-12-17T11:03:50;101122.44;;;9.65;96.69
46944;BME280;32678;43.852;25.952;2022-12-17T11:09:05;101098.38;;;9.86;95.80
46944;BME280;32678;43.852;25.952;2022-12-17T11:14:28;101076.94;;;10.04;96.25
46944;BME280;32678;43.852;25.952;2022-12-17T11:19:47;101019.78;;;10.21;98.04
46944;BME280;32678;43.852;25.952;2022-12-17T11:25:05;101011.41;;;10.69;96.63
46944;BME280;32678;43.852;25.952;2022-12-17T11:30:25;100989.75;;;10.92;96.19
46944;BME280;32678;43.852;25.952;2022-12-17T11:35:44;100998.75;;;11.11;95.50
46944;BME280;32678;43.852;25.952;2022-12-17T11:41:07;100983.19;;;11.05;96.12
46944;BME280;32678;43.852;25.952;2022-12-17T11:46:31;101044.19;;;11.13;96.16
46944;BME280;32678;43.852;25.952;2022-12-17T11:51:59;101052.00;;;11.14;95.96
46944;BME280;32678;43.852;25.952;2022-12-17T11:57:23;101089.47;;;11.19;95.84
46944;BME280;32678;43.852;25.952;2022-12-17T12:02:44;101078.16;;;11.17;95.46
46944;BME280;32678;43.852;25.952;2022-12-17T12:08:04;101054.50;;;11.19;95.29
46944;BME280;32678;43.852;25.952;2022-12-17T12:13:26;101085.91;;;11.22;95.45
46944;BME280;32678;43.852;25.952;2022-12-17T12:18:50;101062.09;;;11.28;95.87
46944;BME280;32678;43.852;25.952;2022-12-17T12:24:27;101041.25;;;11.23;96.28
46944;BME280;32678;43.852;25.952;2022-12-17T12:29:49;101028.75;;;11.30;96.19
46944;BME280;32678;43.852;25.952;2022-12-17T12:35:15;101039.75;;;11.43;95.80
46944;BME280;32678;43.852;25.952;2022-12-17T12:40:37;100983.50;;;11.50;95.38
46944;BME280;32678;43.852;25.952;2022-12-17T12:45:57;100995.25;;;11.64;94.64
46944;BME280;32678;43.852;25.952;2022-12-17T12:51:15;101027.28;;;11.77;93.62
46944;BME280;32678;43.852;25.952;2022-12-17T12:56:34;101045.19;;;11.91;92.17
46944;BME280;32678;43.852;25.952;2022-12-17T13:01:49;101074.06;;;11.92;91.51
46944;BME280;32678;43.852;25.952;2022-12-17T13:07:17;101098.25;;;12.02;90.45
46944;BME280;32678;43.852;25.952;2022-12-17T13:12:23;101062.72;;;12.17;89.19
46944;BME280;32678;43.852;25.952;2022-12-17T13:17:27;101010.88;;;12.20;88.17
46944;BME280;32678;43.852;25.952;2022-12-17T13:22:28;101056.44;;;12.21;87.90
46944;BME280;32678;43.852;25.952;2022-12-17T13:27:26;101059.75;;;12.26;87.40
46944;BME280;32678;43.852;25.952;2022-12-17T13:32:27;101104.22;;;12.32;86.78
46944;BME280;32678;43.852;25.952;2022-12-17T13:37:37;101107.34;;;12.43;86.24
46944;BME280;32678;43.852;25.952;2022-12-17T13:42:37;101113.63;;;12.64;84.26
46944;BME280;32678;43.852;25.952;2022-12-17T13:47:37;101099.06;;;12.78;81.63
46944;BME280;32678;43.852;25.952;2022-12-17T13:52:35;101114.63;;;13.08;80.24
46944;BME280;32678;43.852;25.952;2022-12-17T13:57:44;101117.00;;;12.90;80.64
46944;BME280;32678;43.852;25.952;2022-12-17T14:02:42;101125.75;;;12.91;80.58
46944;BME280;32678;43.852;25.952;2022-12-17T14:07:42;101141.38;;;12.72;81.41
46944;BME280;32678;43.852;25.952;2022-12-17T14:12:41;101137.41;;;12.61;81.93
46944;BME280;32678;43.852;25.952;2022-12-17T14:17:41;101126.88;;;12.36;82.72
46944;BME280;32678;43.852;25.952;2022-12-17T14:22:42;101159.03;;;12.18;84.08
46944;BME280;32678;43.852;25.952;2022-12-17T14:27:54;101159.75;;;11.96;84.43
46944;BME280;32678;43.852;25.952;2022-12-17T14:32:54;101179.72;;;12.02;84.67
46944;BME280;32678;43.852;25.952;2022-12-17T14:37:56;101186.50;;;11.81;85.46
46944;BME280;32678;43.852;25.952;2022-12-17T14:42:56;101195.47;;;11.74;86.08
46944;BME280;32678;43.852;25.952;2022-12-17T14:47:54;101199.84;;;11.73;86.39
46944;BME280;32678;43.852;25.952;2022-12-17T14:52:57;101212.78;;;11.50;87.53
46944;BME280;32678;43.852;25.952;2022-12-17T14:58:18;101223.09;;;11.27;88.51
46944;BME280;32678;43.852;25.952;2022-12-17T15:03:17;101225.75;;;11.25;89.30
46944;BME280;32678;43.852;25.952;2022-12-17T15:08:15;101238.28;;;11.16;89.64
46944;BME280;32678;43.852;25.952;2022-12-17T15:13:12;101253.56;;;11.02;90.15
46944;BME280;32678;43.852;25.952;2022-12-17T15:18:09;101254.94;;;10.82;91.79
46944;BME280;32678;43.852;25.952;2022-12-17T15:23:10;101257.03;;;10.70;92.33
46944;BME280;32678;43.852;25.952;2022-12-17T15:28:10;101270.00;;;10.40;93.85
46944;BME280;32678;43.852;25.952;2022-12-17T15:33:14;101270.16;;;10.33;94.43
46944;BME280;32678;43.852;25.952;2022-12-17T15:38:15;101293.63;;;10.37;94.73
46944;BME280;32678;43.852;25.952;2022-12-17T15:43:16;101311.84;;;10.05;96.12
46944;BME280;32678;43.852;25.952;2022-12-17T15:48:15;101319.84;;;9.97;96.31
46944;BME280;32678;43.852;25.952;2022-12-17T15:53:12;101336.59;;;9.90;96.45
46944;BME280;32678;43.852;25.952;2022-12-17T15:58:09;101334.97;;;9.85;96.30
46944;BME280;32678;43.852;25.952;2022-12-17T16:03:07;101355.53;;;9.62;97.34
46944;BME280;32678;43.852;25.952;2022-12-17T16:08:06;101385.97;;;9.66;96.62
46944;BME280;32678;43.852;25.952;2022-12-17T16:13:03;101382.09;;;9.40;97.50
46944;BME280;32678;43.852;25.952;2022-12-17T16:18:00;101376.94;;;9.37;97.40
46944;BME280;32678;43.852;25.952;2022-12-17T16:23:01;101401.97;;;9.50;96.46
46944;BME280;32678;43.852;25.952;2022-12-17T16:28:00;101425.91;;;9.29;96.73
46944;BME280;32678;43.852;25.952;2022-12-17T16:32:56;101450.22;;;9.34;96.43
46944;BME280;32678;43.852;25.952;2022-12-17T16:37:54;101438.97;;;9.31;96.94
46944;BME280;32678;43.852;25.952;2022-12-17T16:42:52;101441.56;;;9.32;97.82
46944;BME280;32678;43.852;25.952;2022-12-17T16:47:48;101433.91;;;9.20;100.00
46944;BME280;32678;43.852;25.952;2022-12-17T16:52:47;101461.47;;;9.42;100.00
46944;BME280;32678;43.852;25.952;2022-12-17T16:57:43;101451.06;;;9.38;100.00
46944;BME280;32678;43.852;25.952;2022-12-17T17:02:43;101463.88;;;9.53;98.16
46944;BME280;32678;43.852;25.952;2022-12-17T17:07:48;101473.63;;;9.43;98.21
46944;BME280;32678;43.852;25.952;2022-12-17T17:12:49;101479.94;;;9.32;100.00
46944;BME280;32678;43.852;25.952;2022-12-17T17:17:47;101481.53;;;9.42;100.00
46944;BME280;32678;43.852;25.952;2022-12-17T17:22:51;101487.81;;;9.32;100.00
46944;BME280;32678;43.852;25.952;2022-12-17T17:27:51;101500.72;;;9.41;100.00
46944;BME280;32678;43.852;25.952;2022-12-17T17:32:49;101512.69;;;9.57;100.00
46944;BME280;32678;43.852;25.952;2022-12-17T17:37:45;101526.69;;;9.53;100.00
46944;BME280;32678;43.852;25.952;2022-12-17T17:42:42;101540.94;;;9.37;100.00
46944;BME280;32678;43.852;25.952;2022-12-17T17:47:47;101539.13;;;9.39;100.00
46944;BME280;32678;43.852;25.952;2022-12-17T17:52:44;101551.31;;;9.41;100.00
46944;BME280;32678;43.852;25.952;2022-12-17T17:57:41;101551.16;;;9.52;100.00
46944;BME280;32678;43.852;25.952;2022-12-17T18:02:38;101544.03;;;9.60;100.00
46944;BME280;32678;43.852;25.952;2022-12-17T18:07:38;101526.91;;;9.41;100.00
46944;BME280;32678;43.852;25.952;2022-12-17T18:12:36;101558.16;;;9.50;100.00
46944;BME280;32678;43.852;25.952;2022-12-17T18:17:51;101567.38;;;9.74;100.00
46944;BME280;32678;43.852;25.952;2022-12-17T18:22:48;101563.31;;;9.56;100.00
46944;BME280;32678;43.852;25.952;2022-12-17T18:27:46;101548.56;;;9.49;100.00
46944;BME280;32678;43.852;25.952;2022-12-17T18:32:43;101563.72;;;9.29;100.00
46944;BME280;32678;43.852;25.952;2022-12-17T18:37:48;101568.16;;;9.24;100.00
46944;BME280;32678;43.852;25.952;2022-12-17T18:42:46;101567.91;;;9.40;100.00
46944;BME280;32678;43.852;25.952;2022-12-17T18:48:01;101584.44;;;9.44;100.00
46944;BME280;32678;43.852;25.952;2022-12-17T18:53:05;101586.06;;;9.51;100.00
46944;BME280;32678;43.852;25.952;2022-12-17T18:58:07;101606.88;;;9.58;100.00
46944;BME280;32678;43.852;25.952;2022-12-17T19:03:06;101614.88;;;9.49;99.26
46944;BME280;32678;43.852;25.952;2022-12-17T19:08:05;101621.03;;;9.47;99.12
46944;BME280;32678;43.852;25.952;2022-12-17T19:13:03;101631.47;;;9.50;98.61
46944;BME280;32678;43.852;25.952;2022-12-17T19:18:05;101646.38;;;9.43;97.78
46944;BME280;32678;43.852;25.952;2022-12-17T19:23:05;101644.50;;;9.53;96.84
46944;BME280;32678;43.852;25.952;2022-12-17T19:28:03;101654.34;;;9.34;97.19
46944;BME280;32678;43.852;25.952;2022-12-17T19:33:01;101657.72;;;9.44;96.35
46944;BME280;32678;43.852;25.952;2022-12-17T19:38:00;101661.06;;;9.53;95.71
46944;BME280;32678;43.852;25.952;2022-12-17T19:43:00;101662.13;;;9.40;95.84
46944;BME280;32678;43.852;25.952;2022-12-17T19:47:57;101670.56;;;9.62;94.87
46944;BME280;32678;43.852;25.952;2022-12-17T19:52:57;101666.44;;;9.44;95.47
46944;BME280;32678;43.852;25.952;2022-12-17T19:57:56;101674.09;;;9.58;94.70
46944;BME280;32678;43.852;25.952;2022-12-17T20:02:55;101693.25;;;9.62;93.44
46944;BME280;32678;43.852;25.952;2022-12-17T20:07:55;101690.06;;;9.40;94.32
46944;BME280;32678;43.852;25.952;2022-12-17T20:12:57;101717.03;;;9.45;94.25
46944;BME280;32678;43.852;25.952;2022-12-17T20:17:54;101724.03;;;9.44;93.58
46944;BME280;32678;43.852;25.952;2022-12-17T20:22:51;101723.31;;;9.33;93.20
46944;BME280;32678;43.852;25.952;2022-12-17T20:27:48;101734.72;;;9.28;93.33
46944;BME280;32678;43.852;25.952;2022-12-17T20:32:46;101740.78;;;9.30;92.90
46944;BME280;32678;43.852;25.952;2022-12-17T20:37:43;101741.75;;;9.23;93.74
46944;BME280;32678;43.852;25.952;2022-12-17T20:42:40;101759.16;;;9.24;92.92
46944;BME280;32678;43.852;25.952;2022-12-17T20:47:36;101767.88;;;9.26;92.31
46944;BME280;32678;43.852;25.952;2022-12-17T20:52:34;101781.94;;;9.19;92.05
46944;BME280;32678;43.852;25.952;2022-12-17T20:57:35;101781.19;;;9.06;91.76
46944;BME280;32678;43.852;25.952;2022-12-17T21:02:32;101776.88;;;9.00;91.53
46944;BME280;32678;43.852;25.952;2022-12-17T21:07:30;101784.00;;;8.86;91.33
46944;BME280;32678;43.852;25.952;2022-12-17T21:12:32;101785.72;;;8.87;90.97
46944;BME280;32678;43.852;25.952;2022-12-17T21:17:44;101782.38;;;8.75;91.23
46944;BME280;32678;43.852;25.952;2022-12-17T21:22:41;101804.91;;;8.85;91.64
46944;BME280;32678;43.852;25.952;2022-12-17T21:27:39;101813.53;;;8.96;91.21
46944;BME280;32678;43.852;25.952;2022-12-17T21:32:36;101830.09;;;8.98;90.47
46944;BME280;32678;43.852;25.952;2022-12-17T21:37:37;101832.63;;;9.07;89.44
46944;BME280;32678;43.852;25.952;2022-12-17T21:42:34;101831.84;;;8.94;89.28
46944;BME280;32678;43.852;25.952;2022-12-17T21:47:50;101830.00;;;9.05;88.73
46944;BME280;32678;43.852;25.952;2022-12-17T21:52:47;101829.31;;;8.87;89.70
46944;BME280;32678;43.852;25.952;2022-12-17T21:57:44;101824.03;;;8.91;90.00
46944;BME280;32678;43.852;25.952;2022-12-17T22:02:40;101835.53;;;8.70;90.83
46944;BME280;32678;43.852;25.952;2022-12-17T22:07:38;101831.00;;;8.94;89.38
46944;BME280;32678;43.852;25.952;2022-12-17T22:12:41;101817.16;;;8.84;88.76
46944;BME280;32678;43.852;25.952;2022-12-17T22:17:56;101842.44;;;8.82;89.09
46944;BME280;32678;43.852;25.952;2022-12-17T22:22:54;101860.06;;;8.56;89.68
46944;BME280;32678;43.852;25.952;2022-12-17T22:27:55;101861.84;;;8.54;89.20
46944;BME280;32678;43.852;25.952;2022-12-17T22:32:52;101856.53;;;8.61;88.00
46944;BME280;32678;43.852;25.952;2022-12-17T22:38:00;101875.88;;;8.36;87.65
46944;BME280;32678;43.852;25.952;2022-12-17T22:43:16;101887.22;;;8.27;87.59
46944;BME280;32678;43.852;25.952;2022-12-17T22:48:45;101892.50;;;8.12;87.17
46944;BME280;32678;43.852;25.952;2022-12-17T22:53:43;101892.50;;;8.18;86.33
46944;BME280;32678;43.852;25.952;2022-12-17T22:58:42;101894.22;;;8.16;86.67
46944;BME280;32678;43.852;25.952;2022-12-17T23:03:39;101906.44;;;8.14;86.24
46944;BME280;32678;43.852;25.952;2022-12-17T23:08:36;101918.75;;;7.87;85.99
46944;BME280;32678;43.852;25.952;2022-12-17T23:13:34;101917.09;;;7.61;85.83
46944;BME280;32678;43.852;25.952;2022-12-17T23:18:32;101915.41;;;7.18;86.56
46944;BME280;32678;43.852;25.952;2022-12-17T23:23:30;101949.31;;;7.13;86.65
46944;BME280;32678;43.852;25.952;2022-12-17T23:28:39;101971.00;;;6.94;86.55
46944;BME280;32678;43.852;25.952;2022-12-17T23:33:35;101964.97;;;7.07;85.78
46944;BME280;32678;43.852;25.952;2022-12-17T23:38:33;101966.69;;;6.99;86.83
46944;BME280;32678;43.852;25.952;2022-12-17T23:43:33;101976.25;;;7.11;87.40
46944;BME280;32678;43.852;25.952;2022-12-17T23:48:31;101977.13;;;7.04;86.84
46944;BME280;32678;43.852;25.952;2022-12-17T23:53:35;101987.56;;;7.23;86.38
46944;BME280;32678;43.852;25.952;2022-12-17T23:58:32;101986.69;;;7.08;84.93
